Time;durP1;ratioP1;P1;durP2;ratioP2;P2;SDS_P1;SDS_P2;PMS_P1;PMS_P2;Temp;Humidity;BMP_temperature;BMP_pressure;BME280_temperature;BME280_humidity;BME280_pressure;Samples;Min_cycle;Max_cycle;Signal;HPM_P1;HPM_P2
2020/12/23 00:01:42;;;;;;;8.60;2.40;;;9.30;99.90;;;;;;4995617;28;20468;-60
2020/12/23 00:04:09;;;;;;;7.33;2.63;;;9.30;99.90;;;;;;4996046;28;20872;-60
2020/12/23 00:06:35;;;;;;;7.60;1.83;;;9.30;99.90;;;;;;4995550;28;20461;-61
2020/12/23 00:09:02;;;;;;;7.73;1.83;;;9.30;99.90;;;;;;4996172;28;20462;-60
2020/12/23 00:11:28;;;;;;;8.80;1.97;;;9.30;99.90;;;;;;4995472;28;20458;-61
2020/12/23 00:13:54;;;;;;;5.80;2.23;;;9.30;99.90;;;;;;4995601;28;20497;-60
2020/12/23 00:16:21;;;;;;;7.23;2.00;;;9.30;99.90;;;;;;4995718;28;20473;-60
2020/12/23 00:18:47;;;;;;;6.07;1.50;;;9.30;99.90;;;;;;4995396;28;20481;-61
2020/12/23 00:21:14;;;;;;;7.83;1.73;;;9.30;99.90;;;;;;4995395;28;20461;-61
2020/12/23 00:23:40;;;;;;;6.10;2.13;;;9.30;99.90;;;;;;4995331;28;20462;-61
2020/12/23 00:26:07;;;;;;;11.97;2.73;;;9.30;99.90;;;;;;4995510;28;20877;-61
2020/12/23 00:28:33;;;;;;;3.10;1.83;;;9.30;99.90;;;;;;4995388;28;20457;-60
2020/12/23 00:31:00;;;;;;;8.20;1.70;;;9.30;99.90;;;;;;4995555;28;20912;-61
2020/12/23 00:33:26;;;;;;;5.07;1.87;;;9.30;99.90;;;;;;4995288;28;20764;-61
2020/12/23 00:35:52;;;;;;;5.23;1.90;;;9.30;99.90;;;;;;4997934;28;20993;-61
2020/12/23 00:38:19;;;;;;;5.47;2.20;;;9.30;99.90;;;;;;4999972;28;20481;-59
2020/12/23 00:40:45;;;;;;;8.90;1.90;;;9.30;99.90;;;;;;4998823;28;20461;-60
2020/12/23 00:43:11;;;;;;;8.10;2.50;;;9.20;99.90;;;;;;4999697;28;20461;-60
2020/12/23 00:45:37;;;;;;;14.23;2.00;;;9.20;99.90;;;;;;5000042;28;20457;-60
2020/12/23 00:48:03;;;;;;;9.97;2.20;;;9.20;99.90;;;;;;5000165;28;20930;-60
2020/12/23 00:50:29;;;;;;;8.23;1.90;;;9.20;99.90;;;;;;4999744;28;20482;-60
2020/12/23 00:52:55;;;;;;;5.90;1.60;;;9.20;99.90;;;;;;4999039;28;20916;-61
2020/12/23 00:55:22;;;;;;;8.47;1.87;;;9.20;99.90;;;;;;4999148;28;20793;-61
2020/12/23 00:57:48;;;;;;;4.63;1.60;;;9.10;99.90;;;;;;4999851;28;20509;-61
2020/12/23 01:00:14;;;;;;;11.30;2.17;;;9.10;99.90;;;;;;4998859;28;20461;-61
2020/12/23 01:02:40;;;;;;;3.60;1.30;;;9.10;99.90;;;;;;4999471;28;20466;-61
2020/12/23 01:05:06;;;;;;;6.50;1.30;;;9.00;99.90;;;;;;5003644;28;20919;-60
2020/12/23 01:07:33;;;;;;;5.80;1.23;;;9.00;99.90;;;;;;4999253;28;20464;-60
2020/12/23 01:09:59;;;;;;;4.83;1.60;;;9.10;99.90;;;;;;4999607;28;20911;-60
2020/12/23 01:12:25;;;;;;;7.33;1.63;;;9.00;99.90;;;;;;4998651;28;20931;-60
2020/12/23 01:14:51;;;;;;;7.23;1.70;;;9.10;99.90;;;;;;4998445;28;20458;-61
2020/12/23 01:17:17;;;;;;;3.13;1.70;;;9.00;99.90;;;;;;4998783;28;20477;-60
2020/12/23 01:19:44;;;;;;;4.07;1.40;;;9.00;99.90;;;;;;4998386;28;20462;-60
2020/12/23 01:22:10;;;;;;;4.77;1.67;;;9.10;99.90;;;;;;4998510;28;20458;-60
2020/12/23 01:24:36;;;;;;;9.83;1.63;;;9.00;99.90;;;;;;4998548;28;20527;-61
2020/12/23 01:27:02;;;;;;;6.17;1.80;;;9.10;99.90;;;;;;4998421;28;20458;-61
2020/12/23 01:29:29;;;;;;;6.90;2.27;;;9.00;99.90;;;;;;4998398;28;20527;-61
2020/12/23 01:31:55;;;;;;;10.73;1.50;;;9.00;99.90;;;;;;4998612;28;20466;-61
2020/12/23 01:34:21;;;;;;;9.40;2.07;;;9.10;99.90;;;;;;4998872;28;20472;-60
2020/12/23 01:36:48;;;;;;;12.67;4.77;;;9.10;99.90;;;;;;4998249;28;20457;-69
2020/12/23 01:39:14;;;;;;;6.90;1.90;;;9.10;99.90;;;;;;4998016;28;20466;-69
2020/12/23 01:41:40;;;;;;;9.77;2.07;;;9.10;99.90;;;;;;4998088;28;20462;-69
2020/12/23 01:44:07;;;;;;;6.67;1.93;;;9.00;99.90;;;;;;4997946;28;20472;-68
2020/12/23 01:46:35;;;;;;;5.70;1.87;;;9.00;99.90;;;;;;4996810;28;20472;-70
2020/12/23 01:49:04;;;;;;;8.30;2.23;;;9.10;99.90;;;;;;4998112;28;20458;-68
2020/12/23 01:51:30;;;;;;;6.83;1.80;;;9.10;99.90;;;;;;4997387;28;20478;-69
2020/12/23 01:53:57;;;;;;;7.43;1.80;;;9.10;99.90;;;;;;4998002;28;20458;-68
2020/12/23 01:56:23;;;;;;;7.00;1.80;;;9.00;99.90;;;;;;4997716;28;20796;-68
2020/12/23 01:58:49;;;;;;;13.53;1.90;;;9.00;99.90;;;;;;4997503;28;20513;-69
2020/12/23 02:01:19;;;;;;;12.10;1.90;;;8.90;99.90;;;;;;4997808;28;20461;-68
2020/12/23 02:03:46;;;;;;;5.40;1.70;;;8.90;99.90;;;;;;4997595;28;20471;-69
2020/12/23 02:06:12;;;;;;;7.47;1.87;;;8.90;99.90;;;;;;4997710;28;20462;-69
2020/12/23 02:08:40;;;;;;;6.37;1.87;;;9.00;99.90;;;;;;4997593;28;20458;-69
2020/12/23 02:11:09;;;;;;;9.30;1.93;;;9.00;99.90;;;;;;4997653;28;20468;-69
2020/12/23 02:13:36;;;;;;;7.40;2.30;;;9.00;99.90;;;;;;4997767;28;20931;-69
2020/12/23 02:16:03;;;;;;;4.23;1.80;;;9.00;99.90;;;;;;4997633;28;20458;-68
2020/12/23 02:18:29;;;;;;;12.47;2.20;;;9.10;99.90;;;;;;4997344;28;20528;-69
2020/12/23 02:20:56;;;;;;;7.13;1.60;;;9.10;99.90;;;;;;4997313;28;20461;-69
2020/12/23 02:23:23;;;;;;;6.00;1.73;;;9.10;99.90;;;;;;4997784;28;20796;-69
2020/12/23 02:25:49;;;;;;;5.83;1.97;;;9.10;99.90;;;;;;4997347;28;20473;-69
2020/12/23 02:28:15;;;;;;;4.80;1.50;;;9.10;99.90;;;;;;4997455;28;20788;-69
2020/12/23 02:30:41;;;;;;;6.30;2.03;;;9.10;99.90;;;;;;4997311;28;20465;-69
2020/12/23 02:33:07;;;;;;;11.23;2.20;;;9.10;99.90;;;;;;4997226;28;20840;-71
2020/12/23 02:35:33;;;;;;;6.63;1.50;;;9.10;99.90;;;;;;4997295;28;20458;-68
2020/12/23 02:37:59;;;;;;;6.13;1.60;;;9.10;99.90;;;;;;4996962;28;20485;-68
2020/12/23 02:40:26;;;;;;;2.97;1.70;;;9.10;99.90;;;;;;4996940;28;20793;-69
2020/12/23 02:42:52;;;;;;;4.80;1.53;;;9.10;99.90;;;;;;4997219;28;20457;-69
2020/12/23 02:45:19;;;;;;;6.60;1.60;;;9.10;99.90;;;;;;4996972;28;20461;-69
2020/12/23 02:47:45;;;;;;;5.83;1.30;;;9.10;99.90;;;;;;4996846;28;20486;-69
2020/12/23 02:50:11;;;;;;;8.23;1.83;;;9.10;99.90;;;;;;4996633;28;20485;-69
2020/12/23 02:52:37;;;;;;;4.13;1.47;;;9.10;99.90;;;;;;4996921;28;20461;-69
2020/12/23 02:55:03;;;;;;;7.40;1.83;;;9.10;99.90;;;;;;4996834;28;20462;-69
2020/12/23 02:57:30;;;;;;;6.37;1.90;;;9.10;99.90;;;;;;4996332;28;20482;-68
2020/12/23 02:59:56;;;;;;;5.17;1.67;;;9.10;99.90;;;;;;4996532;28;20488;-68
2020/12/23 03:02:22;;;;;;;6.67;1.50;;;9.10;99.90;;;;;;4996421;28;20462;-69
2020/12/23 03:04:48;;;;;;;4.43;1.40;;;9.10;99.90;;;;;;4996344;28;20494;-69
2020/12/23 03:07:14;;;;;;;6.33;1.20;;;9.10;99.90;;;;;;4996342;28;20915;-69
2020/12/23 03:09:40;;;;;;;3.10;1.30;;;9.20;99.90;;;;;;4996225;28;20496;-69
2020/12/23 03:12:06;;;;;;;7.10;1.33;;;9.20;99.90;;;;;;4996293;28;20458;-68
2020/12/23 03:14:33;;;;;;;12.90;1.77;;;9.20;99.90;;;;;;4996501;28;20501;-68
2020/12/23 03:16:59;;;;;;;5.33;2.07;;;9.20;99.90;;;;;;4996191;28;20461;-68
2020/12/23 03:19:25;;;;;;;8.50;1.73;;;9.20;99.90;;;;;;4996115;28;20462;-69
2020/12/23 03:21:51;;;;;;;9.47;1.87;;;9.10;99.90;;;;;;4996260;28;20793;-69
2020/12/23 03:24:17;;;;;;;9.10;1.47;;;9.10;99.90;;;;;;4996151;28;20462;-68
2020/12/23 03:26:43;;;;;;;8.73;1.60;;;9.20;99.90;;;;;;4996174;28;20472;-67
2020/12/23 03:29:09;;;;;;;8.50;2.13;;;9.20;99.90;;;;;;4996103;28;20458;-69
2020/12/23 03:31:36;;;;;;;10.17;2.20;;;9.20;99.90;;;;;;4996055;28;20458;-68
2020/12/23 03:34:03;;;;;;;8.43;2.00;;;9.20;99.90;;;;;;4995975;28;20457;-68
2020/12/23 03:36:29;;;;;;;9.27;1.50;;;9.20;99.90;;;;;;4995486;28;20458;-69
2020/12/23 03:38:55;;;;;;;3.63;1.10;;;9.20;99.90;;;;;;4995856;28;20514;-68
2020/12/23 03:41:21;;;;;;;9.53;1.77;;;9.30;99.90;;;;;;4995786;28;20832;-68
2020/12/23 03:43:47;;;;;;;5.53;1.30;;;9.30;99.90;;;;;;4995860;28;20922;-69
2020/12/23 03:46:13;;;;;;;8.50;1.50;;;9.30;99.90;;;;;;4995741;28;20465;-69
2020/12/23 03:48:40;;;;;;;6.00;1.63;;;9.30;99.90;;;;;;4995904;28;20912;-69
2020/12/23 03:51:06;;;;;;;6.47;2.00;;;9.30;99.90;;;;;;4995558;28;20481;-68
2020/12/23 03:53:32;;;;;;;4.50;1.47;;;9.40;99.90;;;;;;4995780;28;20881;-69
2020/12/23 03:55:58;;;;;;;2.73;1.40;;;9.40;99.90;;;;;;4995546;28;20944;-68
2020/12/23 03:58:24;;;;;;;8.43;1.80;;;9.40;99.90;;;;;;4995464;28;20481;-68
2020/12/23 04:00:51;;;;;;;6.03;1.63;;;9.40;99.90;;;;;;4995597;28;20457;-69
2020/12/23 04:03:17;;;;;;;11.50;1.70;;;9.50;99.90;;;;;;4995587;28;20461;-68
2020/12/23 04:05:44;;;;;;;6.13;1.47;;;9.50;99.90;;;;;;4995461;28;20531;-69
2020/12/23 04:08:10;;;;;;;4.70;1.53;;;9.50;99.90;;;;;;4995764;28;20465;-68
2020/12/23 04:10:36;;;;;;;5.63;1.40;;;9.50;99.90;;;;;;4994842;28;20462;-69
2020/12/23 04:13:02;;;;;;;8.83;1.43;;;9.40;99.90;;;;;;4995516;28;20787;-68
2020/12/23 04:15:28;;;;;;;3.30;1.57;;;9.40;99.90;;;;;;4995398;28;20461;-68
2020/12/23 04:17:55;;;;;;;6.97;1.57;;;9.40;99.90;;;;;;4995237;28;20486;-69
2020/12/23 04:20:21;;;;;;;3.37;1.23;;;9.30;99.90;;;;;;4995417;28;20458;-69
2020/12/23 04:22:48;;;;;;;9.13;1.30;;;9.30;99.90;;;;;;4996092;28;20462;-68
2020/12/23 04:25:14;;;;;;;6.97;2.07;;;9.20;99.90;;;;;;4995446;28;20805;-69
2020/12/23 04:27:40;;;;;;;9.93;1.80;;;9.20;99.90;;;;;;4995341;28;20458;-69
2020/12/23 04:30:08;;;;;;;4.73;1.57;;;9.20;99.90;;;;;;4995220;28;20923;-69
2020/12/23 04:32:35;;;;;;;5.63;1.50;;;9.20;99.90;;;;;;4995331;28;20487;-69
2020/12/23 04:35:03;;;;;;;8.50;1.40;;;9.30;99.90;;;;;;4995305;28;20458;-69
2020/12/23 04:37:30;;;;;;;16.20;2.90;;;9.30;99.90;;;;;;4995805;28;20525;-68
2020/12/23 04:39:57;;;;;;;9.43;2.10;;;9.30;99.90;;;;;;4995151;28;20462;-68
2020/12/23 04:42:23;;;;;;;3.87;1.23;;;9.30;99.90;;;;;;4995229;28;20498;-68
2020/12/23 04:44:50;;;;;;;7.57;1.40;;;9.30;99.90;;;;;;4995911;28;20462;-67
2020/12/23 04:47:16;;;;;;;6.60;1.40;;;9.20;99.90;;;;;;4995119;28;20458;-69
2020/12/23 04:49:46;;;;;;;4.10;1.00;;;9.20;99.90;;;;;;4994844;28;20552;-69
2020/12/23 04:52:13;;;;;;;14.17;1.87;;;9.10;99.90;;;;;;4995141;28;20476;-68
2020/12/23 04:54:40;;;;;;;6.33;1.70;;;9.10;99.90;;;;;;4995087;28;20808;-68
2020/12/23 04:57:07;;;;;;;6.93;1.90;;;9.10;99.90;;;;;;4994937;28;20458;-68
2020/12/23 04:59:33;;;;;;;9.83;1.87;;;9.10;99.90;;;;;;4995070;28;20783;-67
2020/12/23 05:02:00;;;;;;;6.30;1.23;;;9.10;99.90;;;;;;4995463;28;20465;-68
2020/12/23 05:04:27;;;;;;;5.30;2.30;;;9.10;99.90;;;;;;4995177;28;20759;-68
2020/12/23 05:07:01;;;;;;;5.77;1.43;;;9.10;99.90;;;;;;4995041;28;20462;-66
2020/12/23 05:09:27;;;;;;;7.30;2.10;;;9.10;99.90;;;;;;4994976;28;21005;-68
2020/12/23 05:11:55;;;;;;;6.70;1.77;;;9.20;99.90;;;;;;4994935;28;20468;-68
2020/12/23 05:14:22;;;;;;;5.80;1.63;;;9.10;99.90;;;;;;4995015;28;20457;-69
2020/12/23 05:16:49;;;;;;;3.80;1.20;;;9.10;99.90;;;;;;4994729;28;20559;-68
2020/12/23 05:19:18;;;;;;;5.47;1.50;;;9.20;99.90;;;;;;4994767;28;20509;-68
2020/12/23 05:21:45;;;;;;;8.40;1.13;;;9.20;99.90;;;;;;4997179;28;20461;-68
2020/12/23 05:24:11;;;;;;;11.37;1.43;;;9.10;99.90;;;;;;4998598;28;20462;-68
2020/12/23 05:26:41;;;;;;;7.60;2.00;;;9.10;99.90;;;;;;4998225;28;20461;-68
2020/12/23 05:29:08;;;;;;;10.07;1.80;;;9.20;99.90;;;;;;4998435;28;20449;-68
2020/12/23 05:31:35;;;;;;;4.80;1.40;;;9.20;99.90;;;;;;4998073;28;20465;-68
2020/12/23 05:34:03;;;;;;;3.93;1.20;;;9.20;99.90;;;;;;4998342;28;20458;-68
2020/12/23 05:36:31;;;;;;;9.07;1.27;;;9.20;99.90;;;;;;4998212;28;20800;-68
2020/12/23 05:38:58;;;;;;;8.43;1.80;;;9.20;99.90;;;;;;4998087;28;20509;-68
2020/12/23 05:41:25;;;;;;;4.47;1.53;;;9.20;99.90;;;;;;4998019;28;20458;-67
2020/12/23 05:43:51;;;;;;;8.53;2.40;;;9.20;99.90;;;;;;4998206;28;20920;-68
2020/12/23 05:46:17;;;;;;;4.33;1.40;;;9.20;99.90;;;;;;4998102;28;20500;-67
2020/12/23 05:48:44;;;;;;;7.50;1.30;;;9.20;99.90;;;;;;4997900;28;20519;-68
2020/12/23 05:51:11;;;;;;;12.90;2.17;;;9.20;99.90;;;;;;4997479;28;20485;-68
2020/12/23 05:53:39;;;;;;;5.17;1.50;;;9.20;99.90;;;;;;4997698;28;20904;-67
2020/12/23 05:56:07;;;;;;;12.37;1.63;;;9.20;99.90;;;;;;4997915;28;20464;-68
2020/12/23 05:58:35;;;;;;;10.10;2.90;;;9.20;99.90;;;;;;4997664;28;20513;-68
2020/12/23 06:01:03;;;;;;;7.97;2.17;;;9.10;99.90;;;;;;4997555;28;20502;-68
2020/12/23 06:03:54;;;;;;;4.43;1.47;;;9.20;99.90;;;;;;4997647;28;20778;-67
2020/12/23 06:06:25;;;;;;;11.23;2.23;;;9.10;99.90;;;;;;4998514;28;20442;-69
2020/12/23 06:08:53;;;;;;;12.63;1.43;;;9.10;99.90;;;;;;4998511;28;20442;-69
2020/12/23 06:11:36;;;;;;;10.47;1.80;;;9.10;99.90;;;;;;4997558;28;20462;-69
2020/12/23 06:14:19;;;;;;;3.47;1.23;;;9.10;99.90;;;;;;4997608;28;20508;-69
2020/12/23 06:16:48;;;;;;;7.33;1.40;;;9.10;99.90;;;;;;4997389;28;20485;-70
2020/12/23 06:19:25;;;;;;;7.77;1.67;;;9.10;99.90;;;;;;4997234;28;20544;-70
2020/12/23 06:21:53;;;;;;;7.63;1.57;;;9.10;99.90;;;;;;4997187;28;20453;-69
2020/12/23 06:24:19;;;;;;;9.70;1.93;;;9.20;99.90;;;;;;4997364;28;20453;-68
2020/12/23 06:26:47;;;;;;;5.77;1.70;;;9.20;99.90;;;;;;4997773;28;20461;-68
2020/12/23 06:29:16;;;;;;;10.80;1.73;;;9.20;99.90;;;;;;4997498;28;20489;-69
2020/12/23 06:31:44;;;;;;;6.10;1.90;;;9.30;99.90;;;;;;4997134;28;20485;-68
2020/12/23 06:34:14;;;;;;;10.20;1.90;;;9.30;99.90;;;;;;4996786;28;20458;-69
2020/12/23 06:36:42;;;;;;;13.80;2.47;;;9.30;99.90;;;;;;4998146;28;20794;-67
2020/12/23 06:39:38;;;;;;;4.17;1.70;;;9.40;99.90;;;;;;4997294;28;20481;-68
2020/12/23 06:42:35;;;;;;;4.53;1.47;;;9.40;99.90;;;;;;4998725;28;20449;-68
2020/12/23 06:45:06;;;;;;;6.40;1.63;;;9.40;99.90;;;;;;4996920;28;20454;-69
2020/12/23 06:47:34;;;;;;;4.73;1.50;;;9.40;99.90;;;;;;4996933;28;20446;-68
2020/12/23 06:50:01;;;;;;;5.57;1.80;;;9.30;99.90;;;;;;4997523;28;20811;-68
2020/12/23 06:52:33;;;;;;;4.57;1.40;;;9.30;99.90;;;;;;4996893;28;20469;-67
2020/12/23 06:55:01;;;;;;;6.53;1.57;;;9.20;99.90;;;;;;4996396;28;20899;-68
2020/12/23 06:57:46;;;;;;;5.30;1.70;;;9.20;99.90;;;;;;4996742;28;20473;-69
2020/12/23 07:00:14;;;;;;;7.43;1.80;;;9.20;99.90;;;;;;4996922;28;20485;-68
2020/12/23 07:02:43;;;;;;;6.03;2.00;;;9.10;99.90;;;;;;4996551;28;20465;-69
2020/12/23 07:05:10;;;;;;;11.17;2.40;;;9.10;99.90;;;;;;4996286;28;20562;-68
2020/12/23 07:07:39;;;;;;;19.23;3.07;;;9.10;99.90;;;;;;4996474;28;20936;-68
2020/12/23 07:10:08;;;;;;;6.93;2.20;;;9.10;99.90;;;;;;4996265;28;20791;-70
2020/12/23 07:12:37;;;;;;;11.20;3.20;;;9.10;99.90;;;;;;4996525;28;20462;-69
2020/12/23 07:15:08;;;;;;;7.13;2.80;;;9.10;99.90;;;;;;4996317;28;20469;-67
2020/12/23 07:17:36;;;;;;;12.43;2.43;;;9.10;99.90;;;;;;4996125;28;20461;-69
2020/12/23 07:20:04;;;;;;;13.87;1.90;;;9.10;99.90;;;;;;4996211;28;20489;-69
2020/12/23 07:22:32;;;;;;;8.83;1.80;;;9.10;99.90;;;;;;4996369;28;20524;-70
2020/12/23 07:24:59;;;;;;;4.57;1.70;;;9.10;99.90;;;;;;4996539;28;20856;-70
2020/12/23 07:27:27;;;;;;;8.33;2.00;;;9.10;99.90;;;;;;4996745;28;20795;-67
2020/12/23 07:29:56;;;;;;;9.00;1.70;;;9.10;99.90;;;;;;4996841;28;20462;-70
2020/12/23 07:32:25;;;;;;;7.67;1.90;;;9.10;99.90;;;;;;4996015;28;20924;-70
2020/12/23 07:34:51;;;;;;;12.47;2.73;;;9.10;99.90;;;;;;4996034;28;20468;-70
2020/12/23 07:37:18;;;;;;;7.67;2.00;;;9.10;99.90;;;;;;4996163;28;20527;-69
2020/12/23 07:39:48;;;;;;;4.33;2.03;;;9.10;99.90;;;;;;4996229;28;20856;-69
2020/12/23 07:42:18;;;;;;;7.67;2.67;;;9.10;99.90;;;;;;4997051;28;20453;-68
2020/12/23 07:44:49;;;;;;;6.73;2.73;;;9.10;99.90;;;;;;4996589;28;20553;-69
2020/12/23 07:47:21;;;;;;;6.93;2.67;;;9.00;99.90;;;;;;4996376;28;20442;-69
2020/12/23 07:49:57;;;;;;;7.70;2.73;;;9.00;99.90;;;;;;4995288;28;20938;-69
2020/12/23 07:52:24;;;;;;;6.67;2.43;;;9.00;99.90;;;;;;4995817;28;20464;-68
2020/12/23 07:54:50;;;;;;;11.67;2.63;;;9.00;99.90;;;;;;4996041;28;20465;-68
2020/12/23 07:57:28;;;;;;;14.20;3.30;;;9.00;99.90;;;;;;4995644;28;20516;-69
2020/12/23 08:00:00;;;;;;;9.73;3.40;;;8.90;99.90;;;;;;4995583;28;20441;-68
2020/12/23 08:02:27;;;;;;;11.73;3.37;;;8.80;99.90;;;;;;4995805;28;20452;-68
2020/12/23 08:04:53;;;;;;;11.33;3.63;;;8.80;99.90;;;;;;4995398;28;20787;-68
2020/12/23 08:07:22;;;;;;;9.57;3.13;;;8.80;99.90;;;;;;4995679;28;20481;-68
2020/12/23 08:09:48;;;;;;;7.80;3.43;;;8.80;99.90;;;;;;4995470;28;20457;-68
2020/12/23 08:12:19;;;;;;;9.20;3.30;;;8.80;99.90;;;;;;4995541;28;20496;-69
2020/12/23 08:14:46;;;;;;;14.10;4.27;;;8.80;99.90;;;;;;4995359;28;20931;-69
2020/12/23 08:17:20;;;;;;;10.13;2.90;;;8.80;99.90;;;;;;4995435;28;20453;-68
2020/12/23 08:19:46;;;;;;;9.07;3.30;;;8.80;99.90;;;;;;4995413;28;20480;-68
2020/12/23 08:22:13;;;;;;;9.90;3.77;;;8.80;99.90;;;;;;4995608;28;20470;-68
2020/12/23 08:24:39;;;;;;;8.30;3.30;;;8.80;99.90;;;;;;4995829;28;20830;-70
2020/12/23 08:27:06;;;;;;;9.27;3.40;;;8.80;99.90;;;;;;4995832;28;20458;-67
2020/12/23 08:29:32;;;;;;;9.00;3.30;;;8.90;99.90;;;;;;4995939;28;20522;-68
2020/12/23 08:32:03;;;;;;;14.33;3.27;;;8.90;99.90;;;;;;4999710;28;20469;-69
2020/12/23 08:34:30;;;;;;;4.43;2.40;;;9.00;99.90;;;;;;4996464;28;20442;-68
2020/12/23 08:36:56;;;;;;;9.63;3.50;;;9.00;99.90;;;;;;5003127;28;20457;-69
2020/12/23 08:39:24;;;;;;;12.27;3.07;;;9.00;99.90;;;;;;4995932;28;20485;-69
2020/12/23 08:41:51;;;;;;;5.57;2.80;;;9.00;99.90;;;;;;4996086;28;20524;-69
2020/12/23 08:44:21;;;;;;;9.23;3.00;;;9.10;99.90;;;;;;4996193;28;20473;-69
2020/12/23 08:46:48;;;;;;;11.53;2.97;;;9.10;99.90;;;;;;4995361;28;20468;-68
2020/12/23 08:49:16;;;;;;;12.23;3.50;;;9.10;99.90;;;;;;4995094;28;20458;-68
2020/12/23 08:51:42;;;;;;;13.17;3.67;;;9.10;99.90;;;;;;4995136;28;20461;-69
2020/12/23 08:54:12;;;;;;;14.73;3.80;;;9.20;99.90;;;;;;4994705;28;20935;-69
2020/12/23 08:56:46;;;;;;;13.90;3.90;;;9.10;99.90;;;;;;4997970;28;20767;-68
2020/12/23 08:59:12;;;;;;;9.17;3.70;;;9.10;99.90;;;;;;4998580;28;20462;-69
2020/12/23 09:01:38;;;;;;;17.47;3.40;;;9.20;99.90;;;;;;4998634;28;20461;-69
2020/12/23 09:04:07;;;;;;;11.07;3.60;;;9.30;99.90;;;;;;4998781;28;20911;-69
2020/12/23 09:06:35;;;;;;;12.60;4.40;;;9.30;99.90;;;;;;4999093;28;20983;-69
2020/12/23 09:09:13;;;;;;;13.77;4.30;;;9.30;99.90;;;;;;5001823;28;20470;-69
2020/12/23 09:11:41;;;;;;;10.80;3.97;;;9.40;99.90;;;;;;4998608;28;20508;-68
2020/12/23 09:14:20;;;;;;;7.60;3.80;;;9.40;99.90;;;;;;4999971;28;20457;-68
2020/12/23 09:16:54;;;;;;;7.73;4.17;;;9.50;99.90;;;;;;4999352;28;20441;-68
2020/12/23 09:19:20;;;;;;;12.47;3.80;;;9.50;99.90;;;;;;4998333;28;20583;-69
2020/12/23 09:21:55;;;;;;;16.00;3.17;;;9.50;99.90;;;;;;4998367;28;20468;-68
2020/12/23 09:24:22;;;;;;;12.93;3.50;;;9.50;99.90;;;;;;4999835;28;20446;-69
2020/12/23 09:26:48;;;;;;;10.40;4.60;;;9.50;99.90;;;;;;4998795;28;20462;-69
2020/12/23 09:29:14;;;;;;;5.30;2.77;;;9.60;99.90;;;;;;4998624;28;20519;-69
2020/12/23 09:31:49;;;;;;;16.97;3.53;;;9.60;99.90;;;;;;4998093;28;20589;-70
2020/12/23 09:34:21;;;;;;;14.43;3.90;;;9.60;99.90;;;;;;4998344;28;20457;-67
2020/12/23 09:36:55;;;;;;;9.23;2.73;;;9.60;99.90;;;;;;4998344;28;20845;-68
2020/12/23 09:39:21;;;;;;;6.13;2.40;;;9.60;99.90;;;;;;4998475;28;20545;-69
2020/12/23 09:41:59;;;;;;;7.43;2.50;;;9.60;99.90;;;;;;4998068;28;20465;-68
2020/12/23 09:44:25;;;;;;;13.00;3.13;;;9.60;99.90;;;;;;4997954;28;20450;-68
2020/12/23 09:47:00;;;;;;;7.20;2.13;;;9.60;99.90;;;;;;4998548;28;20465;-68
2020/12/23 09:49:27;;;;;;;6.67;2.90;;;9.50;99.90;;;;;;4997342;28;20976;-69
2020/12/23 09:51:53;;;;;;;7.33;2.43;;;9.50;99.90;;;;;;4997478;28;20908;-67
2020/12/23 09:54:20;;;;;;;5.50;2.27;;;9.50;99.90;;;;;;4998022;28;20847;-68
2020/12/23 09:56:48;;;;;;;15.57;3.50;;;9.50;99.90;;;;;;4997329;28;20461;-68
2020/12/23 09:59:14;;;;;;;7.33;2.90;;;9.50;99.90;;;;;;4997621;28;20482;-69
2020/12/23 10:01:40;;;;;;;5.23;2.60;;;9.60;99.90;;;;;;4997581;28;20465;-68
2020/12/23 10:04:06;;;;;;;13.90;3.23;;;9.60;99.90;;;;;;4997635;28;20957;-68
2020/12/23 10:06:32;;;;;;;10.47;3.67;;;9.60;99.90;;;;;;4997195;28;20553;-67
2020/12/23 10:08:58;;;;;;;6.63;3.57;;;9.50;99.90;;;;;;4996812;28;20469;-68
2020/12/23 10:11:25;;;;;;;11.00;3.90;;;9.50;99.90;;;;;;4997562;28;20468;-67
2020/12/23 10:13:51;;;;;;;7.53;2.93;;;9.50;99.90;;;;;;4997277;28;20481;-68
2020/12/23 10:16:17;;;;;;;14.33;4.07;;;9.50;99.90;;;;;;4997249;28;20469;-65
2020/12/23 10:18:43;;;;;;;10.27;2.57;;;9.50;99.90;;;;;;4997010;28;20970;-65
2020/12/23 10:21:10;;;;;;;7.30;2.90;;;9.50;99.90;;;;;;4997281;28;20462;-69
2020/12/23 10:23:36;;;;;;;8.40;2.80;;;9.50;99.90;;;;;;4997645;28;20472;-65
2020/12/23 10:26:02;;;;;;;7.93;1.80;;;9.60;99.90;;;;;;4997444;28;20469;-65
2020/12/23 10:28:29;;;;;;;9.97;3.20;;;9.60;99.90;;;;;;4997250;28;20915;-65
2020/12/23 10:30:55;;;;;;;8.27;3.60;;;9.60;99.90;;;;;;4997645;28;20485;-65
2020/12/23 10:33:21;;;;;;;11.77;3.03;;;9.70;99.90;;;;;;4997115;28;20453;-66
2020/12/23 10:35:47;;;;;;;6.17;3.07;;;9.80;99.90;;;;;;4996858;28;20473;-65
2020/12/23 10:38:13;;;;;;;8.57;3.47;;;9.80;99.90;;;;;;4997006;28;20525;-66
2020/12/23 10:40:39;;;;;;;8.23;3.97;;;10.00;99.90;;;;;;4997508;28;20470;-65
2020/12/23 10:43:05;;;;;;;11.00;3.20;;;10.00;99.90;;;;;;4997505;28;20771;-66
2020/12/23 10:45:32;;;;;;;8.00;2.60;;;10.00;99.90;;;;;;4998146;28;20520;-65
2020/12/23 10:47:58;;;;;;;9.23;3.73;;;10.00;99.90;;;;;;4999970;28;20462;-67
2020/12/23 10:50:24;;;;;;;11.90;3.10;;;10.10;99.90;;;;;;4997823;28;20478;-65
2020/12/23 10:52:51;;;;;;;11.07;3.40;;;10.10;99.90;;;;;;4997429;28;20461;-64
2020/12/23 10:55:17;;;;;;;11.83;3.27;;;10.00;99.90;;;;;;4998753;28;20469;-64
2020/12/23 10:57:43;;;;;;;6.10;3.00;;;9.90;99.90;;;;;;4999178;28;20454;-65
2020/12/23 11:00:09;;;;;;;4.40;2.60;;;9.90;99.90;;;;;;4998737;28;20462;-66
2020/12/23 11:02:36;;;;;;;8.47;3.10;;;9.90;99.90;;;;;;4997244;28;20465;-66
2020/12/23 11:05:02;;;;;;;8.90;3.10;;;9.90;99.90;;;;;;4996415;28;20468;-66
2020/12/23 11:07:28;;;;;;;8.67;3.23;;;9.80;99.90;;;;;;4996673;28;20469;-65
2020/12/23 11:09:54;;;;;;;9.67;3.43;;;9.80;99.90;;;;;;4997196;28;20481;-66
2020/12/23 11:12:23;;;;;;;6.60;3.07;;;9.70;99.90;;;;;;4997311;28;20535;-66
2020/12/23 11:14:49;;;;;;;13.00;3.10;;;9.60;99.90;;;;;;4998365;28;20457;-66
2020/12/23 11:17:17;;;;;;;7.43;2.70;;;9.60;99.90;;;;;;4997305;28;20453;-66
2020/12/23 11:19:44;;;;;;;8.63;4.07;;;9.60;99.90;;;;;;4996488;28;20482;-65
2020/12/23 11:22:10;;;;;;;7.00;3.27;;;9.70;99.90;;;;;;4996694;28;20474;-66
2020/12/23 11:24:36;;;;;;;9.73;3.27;;;9.60;99.90;;;;;;4997597;28;20458;-65
2020/12/23 11:27:02;;;;;;;12.43;4.27;;;9.60;99.90;;;;;;4996779;28;20500;-65
2020/12/23 11:29:28;;;;;;;12.40;4.37;;;9.60;99.90;;;;;;4996339;28;20830;-66
2020/12/23 11:31:54;;;;;;;7.03;3.30;;;9.60;99.90;;;;;;4996683;28;20462;-65
2020/12/23 11:34:20;;;;;;;9.50;3.70;;;9.60;99.90;;;;;;4996257;28;20465;-66
2020/12/23 11:36:47;;;;;;;8.43;3.20;;;9.60;99.90;;;;;;4997241;28;20468;-67
2020/12/23 11:39:13;;;;;;;4.70;3.10;;;9.60;99.90;;;;;;4996458;28;20478;-66
2020/12/23 11:41:39;;;;;;;6.87;3.50;;;9.70;99.90;;;;;;4996019;28;20457;-65
2020/12/23 11:44:06;;;;;;;11.20;4.00;;;9.70;99.90;;;;;;4995746;28;20457;-66
2020/12/23 11:46:32;;;;;;;10.80;3.83;;;9.80;99.90;;;;;;4995777;28;20462;-68
2020/12/23 11:48:58;;;;;;;11.00;3.30;;;9.90;99.90;;;;;;4995363;28;20500;-68
2020/12/23 11:51:24;;;;;;;10.33;3.80;;;10.00;99.90;;;;;;4996088;28;21014;-68
2020/12/23 11:53:52;;;;;;;8.17;3.70;;;10.00;99.90;;;;;;4995993;28;20541;-68
2020/12/23 11:56:18;;;;;;;10.30;4.00;;;10.00;99.90;;;;;;4996428;28;20561;-68
2020/12/23 11:58:44;;;;;;;7.23;3.97;;;9.90;99.90;;;;;;4996395;28;20547;-74
2020/12/23 12:01:10;;;;;;;8.50;4.20;;;9.90;99.90;;;;;;4996233;28;20473;-76
2020/12/23 12:03:36;;;;;;;11.43;3.83;;;9.90;99.90;;;;;;4995709;28;20458;-74
2020/12/23 12:06:02;;;;;;;9.67;3.87;;;9.80;99.90;;;;;;4995901;28;20599;-74
2020/12/23 12:08:30;;;;;;;7.80;3.13;;;9.80;99.90;;;;;;4995589;28;20473;-73
2020/12/23 12:10:57;;;;;;;10.30;3.63;;;9.80;99.90;;;;;;4996254;28;20457;-73
2020/12/23 12:13:24;;;;;;;7.03;3.50;;;9.80;99.90;;;;;;4995801;28;20469;-75
2020/12/23 12:15:50;;;;;;;7.20;3.17;;;9.70;99.90;;;;;;4995709;28;20458;-76
2020/12/23 12:18:16;;;;;;;11.00;3.37;;;9.80;99.90;;;;;;4996616;28;20617;-74
2020/12/23 12:20:42;;;;;;;16.13;4.10;;;9.80;99.90;;;;;;4996295;28;20934;-76
2020/12/23 12:23:08;;;;;;;15.03;4.17;;;9.80;99.90;;;;;;4996011;28;20789;-75
2020/12/23 12:25:34;;;;;;;12.90;4.67;;;9.90;99.90;;;;;;4995650;28;20470;-75
2020/12/23 12:28:02;;;;;;;7.00;4.20;;;9.90;99.90;;;;;;4997901;28;20458;-75
2020/12/23 12:30:28;;;;;;;9.37;3.73;;;9.90;99.90;;;;;;4997009;28;20462;-76
2020/12/23 12:32:54;;;;;;;11.13;4.20;;;9.90;99.90;;;;;;5000568;28;20607;-75
2020/12/23 12:35:20;;;;;;;10.07;3.90;;;9.90;99.90;;;;;;5000829;28;20473;-75
2020/12/23 12:37:46;;;;;;;7.23;3.20;;;9.80;99.90;;;;;;5001142;28;20472;-74
2020/12/23 12:40:13;;;;;;;12.20;3.87;;;9.80;99.90;;;;;;5001161;28;20454;-77
2020/12/23 12:42:39;;;;;;;10.90;4.40;;;9.80;99.90;;;;;;5001465;28;20461;-77
2020/12/23 12:45:06;;;;;;;4.13;3.33;;;9.90;99.90;;;;;;5001037;28;20930;-78
2020/12/23 12:47:32;;;;;;;15.53;4.47;;;9.90;99.90;;;;;;5000308;28;20469;-75
2020/12/23 12:49:58;;;;;;;7.53;4.30;;;10.00;99.90;;;;;;4999508;28;20481;-74
2020/12/23 12:52:24;;;;;;;15.30;4.13;;;10.00;99.90;;;;;;5000942;28;20461;-75
2020/12/23 12:54:50;;;;;;;8.70;5.33;;;10.00;99.90;;;;;;4999414;28;20468;-76